Alabama, NY

6:15 PM EDT on April 27, 2015 (GMT -0400)
RAWS | | Change Station
CLOSE
Current Station
Personal Weather Station
Location: Basom, NY
Elevation: 627 ft
Nearby Weather Stations

Elev 627 ft 43.11 °N, 78.40 °W | Updated 50 minutes ago

Overcast
Overcast
50 °F
Feels Like 48 °F
N
6
Wind Variable Wind from WNW
Gusts 15.0 mph

Today
High -- | Low -- °F
--% Chance of Precip.
Yesterday
High -- | Low -- °F
Precip. -- in
6:13 AM 8:09 PM
Waxing Gibbous, 68% visible
Pressure 29.94 in
Visibility 10.0 miles
Clouds Mostly Cloudy 2600 ft
Overcast 3900 ft
Windchill 48 °F
Dew Point 39 °F
Humidity 66%
Rainfall in
Snow Depth Not available.
UV 1 out of 12
Pollen 8.60 out of 12
Air Quality Not available.
Flu Activity Widespread
METAR KBUF 272154Z 22011KT 10SM BKN026 OVC039 06/03 A2992 RMK AO2 RAB12E28 SLP138 OCNL BINOVC P0000 T00610028

More Conditions Fewer Conditions

Pressure 29.94 in
Visibility 10.0 miles
Clouds Mostly Cloudy 2600 ft
Overcast 3900 ft
Windchill 48 °F
Dew Point 39 °F
Humidity 66%
Rainfall in
Snow Depth Not available.
UV 1 out of 12
Pollen 8.60 out of 12
Air Quality Not available.
Flu Activity Widespread
METAR KBUF 272154Z 22011KT 10SM BKN026 OVC039 06/03 A2992 RMK AO2 RAB12E28 SLP138 OCNL BINOVC P0000 T00610028

More Conditions Fewer Conditions

10-Day Weather Forecast

Almanac

Astronomy

Apr. 27, 2015 Rise Set
Actual Time
Civil Twilight
Nautical Twilight
Astronomical Twilight
Moon
Length of Visible Light
Length of Day
Tomorrow will be .
, % of the Moon is Illuminated

Today's Extremes

State Highs State Lows

Community

WunderPhotos

Upload Photos

1,817,442 photos uploaded!

WunderBlogs® & News

Nearby

Air Quality

  Air Quality AQ Index Pollutant
Not available.

Snow Depth

Station Depth Elevation

Earthquake Activity

City Distance Mag. Time & Date
Minimum magnitude displayed is 2.5.

Coastal Water Temperatures

Place Temperature

Stations

Nearby Weather Stations

Station Location Temp. Windchill Dew Point Humidity Wind Precip. Elev Updated Type